This is the latest recevied weather packets stored in our database for station/object SR6WXP. If no packets are shown the sender has not sent any weather packets the latest 1 day(s).
| Time | Temp. | Humidity | Pressure | Rain* | Wind** | Luminosity | Snow |
|---|---|---|---|---|---|---|---|
| 1836274739 | 14.44° C | 33% | 999.4 hPa | - | 0.89 m/s, 115° | - | - |
| 1836274498 | 14.44° C | 33% | 999.4 hPa | - | 1.34 m/s, 120° | - | - |
| 1836274480 | 14.44° C | 33% | 999.4 hPa | - | 1.34 m/s, 115° | - | - |
| 1836274257 | 14.44° C | 33% | 999.5 hPa | - | 0.89 m/s, 123° | - | - |
| 1836274230 | 14.44° C | 33% | 999.4 hPa | - | 0.89 m/s, 129° | - | - |
| 1836274017 | 14.44° C | 33% | 999.5 hPa | - | 0.89 m/s, 118° | - | - |
| 1778019638 | 18.89° C | 51% | 982.4 hPa | - | 2.68 m/s, 160° | - | - |
| 1778019396 | 18.89° C | 51% | 982.5 hPa | - | 2.24 m/s, 151° | - | - |
| 1778019156 | 18.89° C | 51% | 982.5 hPa | - | 3.58 m/s, 168° | - | - |
| 1778018916 | 18.89° C | 51% | 982.5 hPa | - | 2.68 m/s, 170° | - | - |
| 1778018676 | 18.89° C | 50% | 982.5 hPa | - | 2.68 m/s, 167° | - | - |
| 1778018436 | 18.89° C | 50% | 982.5 hPa | - | 2.24 m/s, 166° | - | - |
| 1778018194 | 19.44° C | 50% | 982.5 hPa | - | 2.24 m/s, 157° | - | - |
| 1778017954 | 19.44° C | 50% | 982.5 hPa | - | 2.24 m/s, 147° | - | - |
| 1778017714 | 19.44° C | 50% | 982.5 hPa | - | 2.24 m/s, 143° | - | - |
| 1778017474 | 19.44° C | 50% | 982.6 hPa | - | 2.24 m/s, 146° | - | - |
| 1778017234 | 19.44° C | 50% | 982.6 hPa | - | 2.24 m/s, 148° | - | - |
| 1778016992 | 19.44° C | 49% | 982.5 hPa | - | 2.68 m/s, 167° | - | - |
| 1778016750 | 19.44° C | 49% | 982.6 hPa | - | 2.68 m/s, 152° | - | - |
| 1778016510 | 19.44° C | 49% | 982.5 hPa | - | 2.24 m/s, 167° | - | - |
| 1778016269 | 19.44° C | 49% | 982.6 hPa | - | 2.24 m/s, 161° | - | - |
| 1778016029 | 20° C | 49% | 982.6 hPa | - | 2.24 m/s, 156° | - | - |
| 1778015788 | 20° C | 48% | 982.6 hPa | - | 2.24 m/s, 153° | - | - |
| 1778015548 | 20° C | 48% | 982.6 hPa | - | 2.24 m/s, 167° | - | - |
| 1778015308 | 20° C | 48% | 982.6 hPa | - | 1.79 m/s, 174° | - | - |
* Rain since midnight (hover to see other rain measurements)
** Current wind speed in m/s (hover to see current wind gust speed)